Airfield :







YOU CAN JOIN US ON...

 
LOGIN :

Register | Disclaimer

   EN    FR    IT 

 









Legend :    VFR   Marginal VFR   IFR   Intensive IFR   Very Intensive IFR
Visi :
Ceiling :
>= 8 km
>= 3000ft
5 to 8 km
1000 to 3000 ft
1500m to 5 km
500 to 1000 ft
800 to 1500m
200 to 500 ft
< 800m
< 200 ft
Symbols :   Thunderstorms  Fog  Heavy snow  Heavy precipitations  Wind > 20 kt






- Airport Elevation : 270 ft
- IATA code : YMX


CYMX - Montreal International Mirabel

CURRENT METAR :
  • 300800Z 00000KT 25SM SKC 02/02 A3038 RMK SLP293

EXPIRED METARs :
  • 300700Z 00000KT 25SM SKC 03/02 A3038 RMK SLP292
  • 300600Z 00000KT 25SM SKC 04/03 A3039 RMK SLP295

TAF TAF CYMX
Valid from the 30 at 06:00 until the 01 at 06:00 UTC


300540Z 3006/0106 VRB03KT P6SM SKC
FM300800 VRB03KT P6SM FEW001
PROB30 3008/3013 1/4SM FG VV001
FM301300 VRB03KT P6SM SKC
BECMG 3016/3018 23008KT
BECMG 0100/0102 VRB03KT RMK NXT FCST BY 301200Z
CZUL FIR / North America



MET'MAP, your aeronautical weather chart ! - Copyright ORBIFLY December 2007 - Disclaimer

ORBIFLY MET'MAP TEAM :

Programming & Development : Alexandra Zaïnal
Original concept : Baudouin d'Aumeries
Technical & hardware support : Manuel Goepfert
Assistance : Marc-Olivier Méhu




SOURCES & CREDITS :

   NOAA